createdAt,value
2023-06-14T14:47:32.981Z,101663.75
2023-06-14T14:50:00.408Z,101654.81
2023-06-14T14:52:27.883Z,101668.28
2023-06-14T14:54:55.156Z,101653.47
2023-06-14T14:57:22.855Z,101663.72
2023-06-14T14:59:49.972Z,101660.69
2023-06-14T15:02:17.170Z,101669.50
2023-06-14T15:04:44.320Z,101675.66
2023-06-14T15:07:11.514Z,101684.44
2023-06-14T15:09:39.370Z,101673.00
2023-06-14T15:12:08.147Z,101678.47
2023-06-14T15:14:35.344Z,101680.25
2023-06-14T15:17:03.566Z,101673.44
2023-06-14T15:19:31.365Z,101674.31
2023-06-14T15:22:00.056Z,101672.66
2023-06-14T15:24:41.568Z,101670.22
2023-06-14T15:27:12.235Z,101668.44
2023-06-14T15:29:42.894Z,101670.25
2023-06-14T15:32:13.896Z,101661.84
2023-06-14T15:34:41.202Z,101666.94
2023-06-14T15:37:09.293Z,101664.84
2023-06-14T15:39:36.658Z,101664.09
2023-06-14T15:42:04.760Z,101667.81
2023-06-14T15:44:31.983Z,101667.97
2023-06-14T15:46:59.150Z,101666.59
2023-06-14T15:49:27.119Z,101670.63
2023-06-14T15:51:54.365Z,101670.97
2023-06-14T15:54:21.725Z,101674.31
2023-06-14T15:56:48.844Z,101662.72
2023-06-14T15:59:15.954Z,101661.75
2023-06-14T16:01:43.087Z,101662.38
2023-06-14T16:04:11.036Z,101664.38
2023-06-14T16:06:38.142Z,101672.88
2023-06-14T16:09:05.317Z,101668.38
2023-06-14T16:11:32.428Z,101670.78
2023-06-14T16:13:59.724Z,101674.53
2023-06-14T16:16:27.173Z,101670.91
2023-06-14T16:18:54.453Z,101662.97
2023-06-14T16:21:21.651Z,101671.63
2023-06-14T16:23:48.942Z,101669.97
2023-06-14T16:26:16.210Z,101666.53
2023-06-14T16:28:43.459Z,101661.66
2023-06-14T16:31:12.658Z,101668.50
2023-06-14T16:33:40.170Z,101661.09
2023-06-14T16:36:07.429Z,101662.41
2023-06-14T16:38:35.047Z,101663.69
2023-06-14T16:41:02.468Z,101661.97
2023-06-14T16:43:29.609Z,101669.72
2023-06-14T16:45:57.181Z,101664.00
2023-06-14T16:48:24.470Z,101667.69
2023-06-14T16:50:51.687Z,101658.72
2023-06-14T16:53:18.915Z,101661.38
2023-06-14T16:55:46.051Z,101662.66
2023-06-14T16:58:13.343Z,101673.84
2023-06-14T17:00:40.509Z,101664.81
2023-06-14T17:03:07.818Z,101670.84
2023-06-14T17:05:35.522Z,101680.47
2023-06-14T17:08:03.472Z,101670.97
2023-06-14T17:10:30.625Z,101672.13
2023-06-14T17:12:58.372Z,101669.00
2023-06-14T17:15:25.566Z,101666.44
2023-06-14T17:17:52.778Z,101676.84
2023-06-14T17:20:21.360Z,101672.03
2023-06-14T17:22:48.516Z,101673.03
2023-06-14T17:25:15.967Z,101679.31
2023-06-14T17:27:43.125Z,101683.72
2023-06-14T17:30:11.338Z,101678.00
2023-06-14T17:32:38.774Z,101680.09
2023-06-14T17:35:06.350Z,101679.34
2023-06-14T17:37:33.618Z,101683.75
2023-06-14T17:40:01.332Z,101693.00
2023-06-14T17:42:28.412Z,101700.84
2023-06-14T17:44:56.868Z,101691.13
2023-06-14T17:47:35.615Z,101693.59
2023-06-14T17:50:04.822Z,101700.75
2023-06-14T17:52:32.122Z,101700.84
2023-06-14T17:54:59.220Z,101695.94
2023-06-14T17:57:26.885Z,101704.91
2023-06-14T17:59:55.975Z,101690.06
2023-06-14T18:02:23.331Z,101693.97
2023-06-14T18:04:50.683Z,101702.16
2023-06-14T18:07:17.814Z,101702.28
2023-06-14T18:09:44.948Z,101712.19
2023-06-14T18:12:12.896Z,101705.25
2023-06-14T18:14:40.449Z,101706.41
2023-06-14T18:17:07.732Z,101698.84
2023-06-14T18:19:35.637Z,101709.66
2023-06-14T18:22:02.793Z,101708.91
2023-06-14T18:24:29.952Z,101722.44
2023-06-14T18:26:57.265Z,101724.44
2023-06-14T18:29:24.476Z,101712.59
2023-06-14T18:31:51.722Z,101722.63
2023-06-14T18:34:18.918Z,101726.50
2023-06-14T18:36:46.143Z,101720.66
2023-06-14T18:39:13.240Z,101727.75
2023-06-14T18:41:41.184Z,101736.56
2023-06-14T18:44:08.488Z,101730.28
2023-06-14T18:46:35.679Z,101732.88
2023-06-14T18:49:02.979Z,101732.03
2023-06-14T18:51:30.124Z,101729.69
2023-06-14T18:53:57.411Z,101728.06
2023-06-14T18:56:24.564Z,101737.25
2023-06-14T18:58:51.783Z,101733.16
2023-06-14T19:01:18.981Z,101726.38
2023-06-14T19:03:46.465Z,101732.72
2023-06-14T19:06:13.692Z,101730.28
2023-06-14T19:08:43.501Z,101738.28
2023-06-14T19:11:10.988Z,101743.78
2023-06-14T19:13:38.338Z,101743.84
2023-06-14T19:16:05.589Z,101741.31
2023-06-14T19:18:33.454Z,101750.34
2023-06-14T19:21:00.882Z,101746.13
2023-06-14T19:23:28.590Z,101749.78
2023-06-14T19:25:55.875Z,101748.09
2023-06-14T19:28:25.411Z,101756.16
2023-06-14T19:30:54.387Z,101746.84
2023-06-14T19:33:21.566Z,101760.13
2023-06-14T19:35:48.820Z,101761.94
2023-06-14T19:38:16.016Z,101759.53
2023-06-14T19:40:43.328Z,101764.06
2023-06-14T19:43:10.990Z,101768.53
2023-06-14T19:45:38.467Z,101772.22
2023-06-14T19:48:19.114Z,101760.94
2023-06-14T19:50:51.042Z,101770.75
2023-06-14T19:53:18.542Z,101777.94
2023-06-14T19:55:46.015Z,101776.34
2023-06-14T19:58:13.228Z,101776.63
2023-06-14T20:00:41.210Z,101786.34
2023-06-14T20:03:08.416Z,101783.03
2023-06-14T20:05:36.310Z,101784.88
2023-06-14T20:08:04.038Z,101789.44
2023-06-14T20:10:31.290Z,101783.41
2023-06-14T20:12:58.464Z,101787.91
2023-06-14T20:15:25.622Z,101803.81
2023-06-14T20:17:52.926Z,101788.22
2023-06-14T20:20:20.156Z,101800.59
2023-06-14T20:22:47.265Z,101795.53
2023-06-14T20:25:14.873Z,101807.00
2023-06-14T20:27:42.617Z,101810.63
2023-06-14T20:30:10.558Z,101802.84
2023-06-14T20:32:37.736Z,101814.38
2023-06-14T20:35:05.278Z,101807.44
2023-06-14T20:37:32.443Z,101818.06
2023-06-14T20:40:06.358Z,101810.25
2023-06-14T20:42:34.486Z,101814.78
2023-06-14T20:45:01.894Z,101807.75
2023-06-14T20:47:29.703Z,101801.72
2023-06-14T20:49:57.376Z,101815.03
2023-06-14T20:52:25.143Z,101815.16
2023-06-14T20:54:53.232Z,101815.31
2023-06-14T20:57:22.824Z,101808.41
2023-06-14T20:59:50.822Z,101812.81
2023-06-14T21:02:18.817Z,101815.56
2023-06-14T21:04:46.974Z,101811.16
2023-06-14T21:07:14.613Z,101820.91
2023-06-14T21:09:42.448Z,101823.63
2023-06-14T21:12:10.364Z,101825.50
2023-06-14T21:14:37.756Z,101831.63
2023-06-14T21:17:06.784Z,101820.28
2023-06-14T21:19:34.101Z,101833.41
2023-06-14T21:22:01.207Z,101834.28
2023-06-14T21:24:28.413Z,101836.94
2023-06-14T21:26:55.596Z,101830.81
2023-06-14T21:29:22.778Z,101832.63
2023-06-14T21:31:49.894Z,101830.94
2023-06-14T21:34:17.011Z,101835.31
2023-06-14T21:36:44.116Z,101836.31
2023-06-14T21:39:11.696Z,101818.09
2023-06-14T21:41:39.434Z,101831.22
2023-06-14T21:44:06.650Z,101840.94
2023-06-14T21:46:33.857Z,101840.19
2023-06-14T21:49:01.046Z,101847.19
2023-06-14T21:51:28.283Z,101842.81
2023-06-14T21:53:56.642Z,101837.63
2023-06-14T21:56:25.190Z,101841.22
2023-06-14T21:58:52.320Z,101845.63
2023-06-14T22:01:20.010Z,101843.94
2023-06-14T22:03:47.292Z,101843.94
2023-06-14T22:06:14.497Z,101840.41
2023-06-14T22:08:42.429Z,101845.66
2023-06-14T22:11:11.286Z,101852.69
2023-06-14T22:13:41.428Z,101844.00
2023-06-14T22:16:09.276Z,101844.84
2023-06-14T22:18:36.683Z,101852.78
2023-06-14T22:21:03.945Z,101846.69
2023-06-14T22:23:48.745Z,101852.81
2023-06-14T22:26:25.467Z,101851.97
2023-06-14T22:29:06.107Z,101852.03
2023-06-14T22:31:38.085Z,101858.22
2023-06-14T22:34:05.545Z,101861.78
2023-06-14T22:36:32.745Z,101863.56
2023-06-14T22:39:04.500Z,101861.84
2023-06-14T22:41:32.959Z,101855.72
2023-06-14T22:44:00.184Z,101856.59
2023-06-14T22:46:29.361Z,101859.25
2023-06-14T22:48:58.257Z,101868.91
2023-06-14T22:51:26.250Z,101858.47
2023-06-14T22:53:53.975Z,101856.75
2023-06-14T22:56:21.737Z,101862.91
2023-06-14T22:58:49.392Z,101862.03
2023-06-14T23:01:18.833Z,101855.97
2023-06-14T23:03:48.331Z,101864.69
2023-06-14T23:06:25.883Z,101858.59
2023-06-14T23:08:54.828Z,101858.59
2023-06-14T23:11:23.570Z,101865.59
2023-06-14T23:13:57.279Z,101856.88
2023-06-14T23:16:24.879Z,101861.25
2023-06-14T23:18:55.303Z,101866.50
2023-06-14T23:21:22.641Z,101863.03
2023-06-14T23:23:51.044Z,101860.38
2023-06-14T23:26:21.764Z,101862.16
2023-06-14T23:28:54.931Z,101856.91
2023-06-14T23:31:23.704Z,101853.38
2023-06-14T23:33:53.735Z,101860.41
2023-06-14T23:36:21.501Z,101859.53
2023-06-14T23:38:49.457Z,101864.78
2023-06-14T23:41:17.193Z,101871.78
2023-06-14T23:43:46.862Z,101864.78
2023-06-14T23:46:16.550Z,101863.03
2023-06-14T23:48:44.223Z,101867.41
2023-06-14T23:51:11.505Z,101865.66
2023-06-14T23:53:39.023Z,101870.06
2023-06-14T23:56:10.497Z,101868.31
2023-06-14T23:58:38.582Z,101877.03
